sensor_id;sensor_type;location;lat;lon;timestamp;temperature;humidity
31369;DHT22;18004;48.416;10.066;2023-05-07T00:00:28;14.10;99.90
31369;DHT22;18004;48.416;10.066;2023-05-07T00:02:55;14.10;99.90
31369;DHT22;18004;48.416;10.066;2023-05-07T00:05:20;14.00;99.90
31369;DHT22;18004;48.416;10.066;2023-05-07T00:07:46;14.00;99.90
31369;DHT22;18004;48.416;10.066;2023-05-07T00:10:12;14.00;99.90
31369;DHT22;18004;48.416;10.066;2023-05-07T00:12:38;13.90;99.90
31369;DHT22;18004;48.416;10.066;2023-05-07T00:15:05;13.90;99.90
31369;DHT22;18004;48.416;10.066;2023-05-07T00:17:32;13.90;99.90
31369;DHT22;18004;48.416;10.066;2023-05-07T00:19:58;13.90;99.90
31369;DHT22;18004;48.416;10.066;2023-05-07T00:22:23;13.90;99.90
31369;DHT22;18004;48.416;10.066;2023-05-07T00:24:49;13.90;99.90
31369;DHT22;18004;48.416;10.066;2023-05-07T00:27:15;13.80;99.90
31369;DHT22;18004;48.416;10.066;2023-05-07T00:29:41;13.80;99.90
31369;DHT22;18004;48.416;10.066;2023-05-07T00:32:07;13.80;99.90
31369;DHT22;18004;48.416;10.066;2023-05-07T00:34:33;13.80;99.90
31369;DHT22;18004;48.416;10.066;2023-05-07T00:37:01;13.80;99.90
31369;DHT22;18004;48.416;10.066;2023-05-07T00:39:26;13.80;99.90
31369;DHT22;18004;48.416;10.066;2023-05-07T00:41:52;13.70;99.90
31369;DHT22;18004;48.416;10.066;2023-05-07T00:44:18;13.60;99.90
31369;DHT22;18004;48.416;10.066;2023-05-07T00:46:44;13.60;99.90
31369;DHT22;18004;48.416;10.066;2023-05-07T00:49:11;13.60;99.90
31369;DHT22;18004;48.416;10.066;2023-05-07T00:51:37;13.50;99.90
31369;DHT22;18004;48.416;10.066;2023-05-07T00:54:03;13.50;99.90
31369;DHT22;18004;48.416;10.066;2023-05-07T00:56:29;13.50;99.90
31369;DHT22;18004;48.416;10.066;2023-05-07T00:58:55;13.50;99.90
31369;DHT22;18004;48.416;10.066;2023-05-07T01:01:21;13.40;99.90
31369;DHT22;18004;48.416;10.066;2023-05-07T01:03:48;13.40;99.90
31369;DHT22;18004;48.416;10.066;2023-05-07T01:06:13;13.40;99.90
31369;DHT22;18004;48.416;10.066;2023-05-07T01:08:42;13.30;99.90
31369;DHT22;18004;48.416;10.066;2023-05-07T01:11:08;13.30;99.90
31369;DHT22;18004;48.416;10.066;2023-05-07T01:13:35;13.30;99.90
31369;DHT22;18004;48.416;10.066;2023-05-07T01:16:02;13.30;99.90
31369;DHT22;18004;48.416;10.066;2023-05-07T01:18:28;13.30;99.90
31369;DHT22;18004;48.416;10.066;2023-05-07T01:20:57;13.10;99.90
31369;DHT22;18004;48.416;10.066;2023-05-07T01:23:23;12.90;99.90
31369;DHT22;18004;48.416;10.066;2023-05-07T01:25:54;12.70;99.90
31369;DHT22;18004;48.416;10.066;2023-05-07T01:28:20;12.70;99.90
31369;DHT22;18004;48.416;10.066;2023-05-07T01:30:58;12.80;99.90
31369;DHT22;18004;48.416;10.066;2023-05-07T01:33:26;12.70;99.90
31369;DHT22;18004;48.416;10.066;2023-05-07T01:35:55;12.40;99.90
31369;DHT22;18004;48.416;10.066;2023-05-07T01:38:22;12.40;99.90
31369;DHT22;18004;48.416;10.066;2023-05-07T01:40:48;12.40;99.90
31369;DHT22;18004;48.416;10.066;2023-05-07T01:43:14;12.50;99.90
31369;DHT22;18004;48.416;10.066;2023-05-07T01:45:40;12.50;99.90
31369;DHT22;18004;48.416;10.066;2023-05-07T01:48:07;12.60;99.90
31369;DHT22;18004;48.416;10.066;2023-05-07T01:50:34;12.70;99.90
31369;DHT22;18004;48.416;10.066;2023-05-07T01:53:01;12.70;99.90
31369;DHT22;18004;48.416;10.066;2023-05-07T01:55:28;12.80;99.90
31369;DHT22;18004;48.416;10.066;2023-05-07T01:57:53;12.80;99.90
31369;DHT22;18004;48.416;10.066;2023-05-07T02:00:19;12.80;99.90
31369;DHT22;18004;48.416;10.066;2023-05-07T02:02:45;12.80;99.90
31369;DHT22;18004;48.416;10.066;2023-05-07T02:05:11;12.80;99.90
31369;DHT22;18004;48.416;10.066;2023-05-07T02:07:37;12.80;99.90
31369;DHT22;18004;48.416;10.066;2023-05-07T02:10:02;12.70;99.90
31369;DHT22;18004;48.416;10.066;2023-05-07T02:12:28;12.70;99.90
31369;DHT22;18004;48.416;10.066;2023-05-07T02:14:54;12.70;99.90
31369;DHT22;18004;48.416;10.066;2023-05-07T02:17:20;12.70;99.90
31369;DHT22;18004;48.416;10.066;2023-05-07T02:19:45;12.60;99.90
31369;DHT22;18004;48.416;10.066;2023-05-07T02:22:11;12.30;99.90
31369;DHT22;18004;48.416;10.066;2023-05-07T02:24:37;12.20;99.90
31369;DHT22;18004;48.416;10.066;2023-05-07T02:27:03;12.20;99.90
31369;DHT22;18004;48.416;10.066;2023-05-07T02:29:29;12.30;99.90
31369;DHT22;18004;48.416;10.066;2023-05-07T02:31:55;12.40;99.90
31369;DHT22;18004;48.416;10.066;2023-05-07T02:34:20;12.40;99.90
31369;DHT22;18004;48.416;10.066;2023-05-07T02:36:46;12.30;99.90
31369;DHT22;18004;48.416;10.066;2023-05-07T02:39:13;12.30;99.90
31369;DHT22;18004;48.416;10.066;2023-05-07T02:41:39;12.30;99.90
31369;DHT22;18004;48.416;10.066;2023-05-07T02:44:05;12.30;99.90
31369;DHT22;18004;48.416;10.066;2023-05-07T02:46:31;12.30;99.90
31369;DHT22;18004;48.416;10.066;2023-05-07T02:48:56;12.30;99.90
31369;DHT22;18004;48.416;10.066;2023-05-07T02:51:22;12.30;99.90
31369;DHT22;18004;48.416;10.066;2023-05-07T02:53:48;12.30;99.90
31369;DHT22;18004;48.416;10.066;2023-05-07T02:56:14;12.30;99.90
31369;DHT22;18004;48.416;10.066;2023-05-07T02:58:40;12.30;99.90
31369;DHT22;18004;48.416;10.066;2023-05-07T03:01:08;12.20;99.90
31369;DHT22;18004;48.416;10.066;2023-05-07T03:03:34;12.20;99.90
31369;DHT22;18004;48.416;10.066;2023-05-07T03:06:00;12.20;99.90
31369;DHT22;18004;48.416;10.066;2023-05-07T03:08:26;12.20;99.90
31369;DHT22;18004;48.416;10.066;2023-05-07T03:10:52;12.20;99.90
31369;DHT22;18004;48.416;10.066;2023-05-07T03:13:17;12.20;99.90
31369;DHT22;18004;48.416;10.066;2023-05-07T03:15:43;12.20;99.90
31369;DHT22;18004;48.416;10.066;2023-05-07T03:18:09;11.90;99.90
31369;DHT22;18004;48.416;10.066;2023-05-07T03:20:35;11.60;99.90
31369;DHT22;18004;48.416;10.066;2023-05-07T03:23:02;11.60;99.90
31369;DHT22;18004;48.416;10.066;2023-05-07T03:25:28;11.70;99.90
31369;DHT22;18004;48.416;10.066;2023-05-07T03:27:56;11.70;99.90
31369;DHT22;18004;48.416;10.066;2023-05-07T03:30:22;11.80;99.90
31369;DHT22;18004;48.416;10.066;2023-05-07T03:32:47;11.80;99.90
31369;DHT22;18004;48.416;10.066;2023-05-07T03:35:13;11.80;99.90
31369;DHT22;18004;48.416;10.066;2023-05-07T03:37:40;11.90;99.90
31369;DHT22;18004;48.416;10.066;2023-05-07T03:40:06;11.90;99.90
31369;DHT22;18004;48.416;10.066;2023-05-07T03:42:33;11.90;99.90
31369;DHT22;18004;48.416;10.066;2023-05-07T03:44:59;11.90;99.90
31369;DHT22;18004;48.416;10.066;2023-05-07T03:47:24;11.90;99.90
31369;DHT22;18004;48.416;10.066;2023-05-07T03:49:50;11.70;99.90
31369;DHT22;18004;48.416;10.066;2023-05-07T03:52:18;11.50;99.90
31369;DHT22;18004;48.416;10.066;2023-05-07T03:54:48;11.50;99.90
31369;DHT22;18004;48.416;10.066;2023-05-07T03:57:14;11.30;99.90
31369;DHT22;18004;48.416;10.066;2023-05-07T03:59:39;11.30;99.90
31369;DHT22;18004;48.416;10.066;2023-05-07T04:02:06;11.30;99.90
31369;DHT22;18004;48.416;10.066;2023-05-07T04:04:31;11.30;99.90
31369;DHT22;18004;48.416;10.066;2023-05-07T04:06:58;11.30;99.90
31369;DHT22;18004;48.416;10.066;2023-05-07T04:09:26;11.30;99.90
31369;DHT22;18004;48.416;10.066;2023-05-07T04:11:51;11.40;99.90
31369;DHT22;18004;48.416;10.066;2023-05-07T04:14:17;11.40;99.90
31369;DHT22;18004;48.416;10.066;2023-05-07T04:16:43;11.50;99.90
31369;DHT22;18004;48.416;10.066;2023-05-07T04:19:09;11.50;99.90
31369;DHT22;18004;48.416;10.066;2023-05-07T04:21:34;11.60;99.90
31369;DHT22;18004;48.416;10.066;2023-05-07T04:24:00;11.60;99.90
31369;DHT22;18004;48.416;10.066;2023-05-07T04:26:26;11.50;99.90
31369;DHT22;18004;48.416;10.066;2023-05-07T04:28:52;11.60;99.90
31369;DHT22;18004;48.416;10.066;2023-05-07T04:31:17;11.60;99.90
31369;DHT22;18004;48.416;10.066;2023-05-07T04:33:43;11.60;99.90
31369;DHT22;18004;48.416;10.066;2023-05-07T04:36:09;11.60;99.90
31369;DHT22;18004;48.416;10.066;2023-05-07T04:38:34;11.60;99.90
31369;DHT22;18004;48.416;10.066;2023-05-07T04:41:04;11.60;99.90
31369;DHT22;18004;48.416;10.066;2023-05-07T04:43:30;11.70;99.90
31369;DHT22;18004;48.416;10.066;2023-05-07T04:45:56;11.70;99.90
31369;DHT22;18004;48.416;10.066;2023-05-07T04:48:22;11.70;99.90
31369;DHT22;18004;48.416;10.066;2023-05-07T04:50:51;11.70;99.90
31369;DHT22;18004;48.416;10.066;2023-05-07T04:53:18;11.80;99.90
31369;DHT22;18004;48.416;10.066;2023-05-07T04:55:44;11.70;99.90
31369;DHT22;18004;48.416;10.066;2023-05-07T04:58:11;11.80;99.90
31369;DHT22;18004;48.416;10.066;2023-05-07T05:00:37;11.90;99.90
31369;DHT22;18004;48.416;10.066;2023-05-07T05:03:04;11.80;99.90
31369;DHT22;18004;48.416;10.066;2023-05-07T05:05:30;11.80;99.90
31369;DHT22;18004;48.416;10.066;2023-05-07T05:07:56;11.90;99.90
31369;DHT22;18004;48.416;10.066;2023-05-07T05:10:22;11.90;99.90
31369;DHT22;18004;48.416;10.066;2023-05-07T05:12:48;12.00;99.90
31369;DHT22;18004;48.416;10.066;2023-05-07T05:15:13;12.10;99.90
31369;DHT22;18004;48.416;10.066;2023-05-07T05:17:39;12.10;99.90
31369;DHT22;18004;48.416;10.066;2023-05-07T05:20:06;12.20;99.90
31369;DHT22;18004;48.416;10.066;2023-05-07T05:22:32;12.20;99.90
31369;DHT22;18004;48.416;10.066;2023-05-07T05:24:58;12.30;99.90
31369;DHT22;18004;48.416;10.066;2023-05-07T05:27:24;12.30;99.90
31369;DHT22;18004;48.416;10.066;2023-05-07T05:29:50;12.40;99.90
31369;DHT22;18004;48.416;10.066;2023-05-07T05:32:15;12.40;99.90
31369;DHT22;18004;48.416;10.066;2023-05-07T05:34:41;12.40;99.90
31369;DHT22;18004;48.416;10.066;2023-05-07T05:37:07;12.50;99.90
31369;DHT22;18004;48.416;10.066;2023-05-07T05:39:33;12.50;99.90
31369;DHT22;18004;48.416;10.066;2023-05-07T05:41:59;12.50;99.90
31369;DHT22;18004;48.416;10.066;2023-05-07T05:44:25;12.60;99.90
31369;DHT22;18004;48.416;10.066;2023-05-07T05:46:51;12.70;99.90
31369;DHT22;18004;48.416;10.066;2023-05-07T05:49:17;12.70;99.90
31369;DHT22;18004;48.416;10.066;2023-05-07T05:51:43;12.70;99.90
31369;DHT22;18004;48.416;10.066;2023-05-07T05:54:09;12.80;99.90
31369;DHT22;18004;48.416;10.066;2023-05-07T05:56:34;12.90;99.90
31369;DHT22;18004;48.416;10.066;2023-05-07T05:59:00;13.00;99.90
31369;DHT22;18004;48.416;10.066;2023-05-07T06:01:26;13.00;99.90
31369;DHT22;18004;48.416;10.066;2023-05-07T06:03:52;13.10;99.90
31369;DHT22;18004;48.416;10.066;2023-05-07T06:06:18;13.20;99.90
31369;DHT22;18004;48.416;10.066;2023-05-07T06:08:43;13.20;99.90
31369;DHT22;18004;48.416;10.066;2023-05-07T06:11:09;13.20;99.90
31369;DHT22;18004;48.416;10.066;2023-05-07T06:13:35;13.30;99.90
31369;DHT22;18004;48.416;10.066;2023-05-07T06:16:01;13.30;99.90
31369;DHT22;18004;48.416;10.066;2023-05-07T06:18:26;13.40;99.90
31369;DHT22;18004;48.416;10.066;2023-05-07T06:20:53;13.50;99.90
31369;DHT22;18004;48.416;10.066;2023-05-07T06:23:18;13.60;99.90
31369;DHT22;18004;48.416;10.066;2023-05-07T06:25:49;13.70;99.90
31369;DHT22;18004;48.416;10.066;2023-05-07T06:28:15;13.80;99.90
31369;DHT22;18004;48.416;10.066;2023-05-07T06:30:41;13.80;99.90
31369;DHT22;18004;48.416;10.066;2023-05-07T06:33:07;13.90;99.90
31369;DHT22;18004;48.416;10.066;2023-05-07T06:35:33;13.90;99.90
31369;DHT22;18004;48.416;10.066;2023-05-07T06:37:59;14.00;99.90
31369;DHT22;18004;48.416;10.066;2023-05-07T06:40:25;14.20;99.90
31369;DHT22;18004;48.416;10.066;2023-05-07T06:42:51;14.20;99.90
31369;DHT22;18004;48.416;10.066;2023-05-07T06:45:16;14.30;99.90
31369;DHT22;18004;48.416;10.066;2023-05-07T06:47:42;14.30;99.90
31369;DHT22;18004;48.416;10.066;2023-05-07T06:50:08;14.40;99.90
31369;DHT22;18004;48.416;10.066;2023-05-07T06:52:35;14.40;99.90
31369;DHT22;18004;48.416;10.066;2023-05-07T06:55:01;14.50;99.90
31369;DHT22;18004;48.416;10.066;2023-05-07T06:57:27;14.60;99.90
31369;DHT22;18004;48.416;10.066;2023-05-07T06:59:52;14.60;99.90
31369;DHT22;18004;48.416;10.066;2023-05-07T07:02:18;14.80;99.90
31369;DHT22;18004;48.416;10.066;2023-05-07T07:04:44;14.80;99.90
31369;DHT22;18004;48.416;10.066;2023-05-07T07:07:10;14.90;99.90
31369;DHT22;18004;48.416;10.066;2023-05-07T07:09:36;15.10;99.90
31369;DHT22;18004;48.416;10.066;2023-05-07T07:12:02;15.20;99.90
31369;DHT22;18004;48.416;10.066;2023-05-07T07:14:28;15.30;99.90
31369;DHT22;18004;48.416;10.066;2023-05-07T07:16:54;15.40;99.90
31369;DHT22;18004;48.416;10.066;2023-05-07T07:19:19;15.60;99.90
31369;DHT22;18004;48.416;10.066;2023-05-07T07:21:52;15.60;99.90
31369;DHT22;18004;48.416;10.066;2023-05-07T07:24:17;15.80;99.90
31369;DHT22;18004;48.416;10.066;2023-05-07T07:26:46;15.90;99.90
31369;DHT22;18004;48.416;10.066;2023-05-07T07:29:13;16.00;99.90
31369;DHT22;18004;48.416;10.066;2023-05-07T07:31:39;16.30;99.90
31369;DHT22;18004;48.416;10.066;2023-05-07T07:34:04;16.50;99.90
31369;DHT22;18004;48.416;10.066;2023-05-07T07:36:30;16.60;99.90
31369;DHT22;18004;48.416;10.066;2023-05-07T07:38:56;16.70;99.90
31369;DHT22;18004;48.416;10.066;2023-05-07T07:41:24;16.90;99.90
31369;DHT22;18004;48.416;10.066;2023-05-07T07:43:50;17.20;99.90
31369;DHT22;18004;48.416;10.066;2023-05-07T07:46:15;17.30;99.90
31369;DHT22;18004;48.416;10.066;2023-05-07T07:48:41;17.20;99.90
31369;DHT22;18004;48.416;10.066;2023-05-07T07:51:07;17.20;99.90
31369;DHT22;18004;48.416;10.066;2023-05-07T07:53:33;17.40;99.90
31369;DHT22;18004;48.416;10.066;2023-05-07T07:55:59;17.80;97.40
31369;DHT22;18004;48.416;10.066;2023-05-07T07:58:24;17.90;98.50
31369;DHT22;18004;48.416;10.066;2023-05-07T08:00:50;17.90;96.30
31369;DHT22;18004;48.416;10.066;2023-05-07T08:03:16;18.10;95.90
31369;DHT22;18004;48.416;10.066;2023-05-07T08:09:54;18.70;96.80
31369;DHT22;18004;48.416;10.066;2023-05-07T08:12:33;19.10;79.80
31369;DHT22;18004;48.416;10.066;2023-05-07T08:22:58;19.00;88.20
31369;DHT22;18004;48.416;10.066;2023-05-07T08:25:42;19.90;82.50
31369;DHT22;18004;48.416;10.066;2023-05-07T08:28:14;20.30;66.60
31369;DHT22;18004;48.416;10.066;2023-05-07T08:38:25;21.20;58.20
31369;DHT22;18004;48.416;10.066;2023-05-07T08:40:54;20.80;46.70
31369;DHT22;18004;48.416;10.066;2023-05-07T08:47:01;21.40;53.10
31369;DHT22;18004;48.416;10.066;2023-05-07T08:54:56;21.80;44.70
31369;DHT22;18004;48.416;10.066;2023-05-07T10:10:29;24.40;12.80
31369;DHT22;18004;48.416;10.066;2023-05-07T10:28:15;23.70;10.80
31369;DHT22;18004;48.416;10.066;2023-05-07T10:38:57;23.30;14.30
31369;DHT22;18004;48.416;10.066;2023-05-07T10:46:22;23.20;18.20
31369;DHT22;18004;48.416;10.066;2023-05-07T11:10:56;22.00;31.60
31369;DHT22;18004;48.416;10.066;2023-05-07T11:13:45;22.10;29.90
31369;DHT22;18004;48.416;10.066;2023-05-07T11:16:42;22.10;31.60
31369;DHT22;18004;48.416;10.066;2023-05-07T11:19:54;22.70;29.10
31369;DHT22;18004;48.416;10.066;2023-05-07T11:22:40;22.70;26.50
31369;DHT22;18004;48.416;10.066;2023-05-07T13:04:46;24.90;5.00
31369;DHT22;18004;48.416;10.066;2023-05-07T13:57:27;23.40;6.30
31369;DHT22;18004;48.416;10.066;2023-05-07T13:59:58;23.00;7.30
31369;DHT22;18004;48.416;10.066;2023-05-07T14:29:37;22.60;10.00
31369;DHT22;18004;48.416;10.066;2023-05-07T14:32:33;22.50;9.00
31369;DHT22;18004;48.416;10.066;2023-05-07T14:35:18;22.40;10.70
31369;DHT22;18004;48.416;10.066;2023-05-07T14:41:09;22.10;9.60
31369;DHT22;18004;48.416;10.066;2023-05-07T14:47:52;21.70;11.30
31369;DHT22;18004;48.416;10.066;2023-05-07T14:54:13;21.90;12.10
31369;DHT22;18004;48.416;10.066;2023-05-07T14:56:42;21.60;13.20
31369;DHT22;18004;48.416;10.066;2023-05-07T15:03:34;21.60;12.90
31369;DHT22;18004;48.416;10.066;2023-05-07T15:06:03;21.50;16.00
31369;DHT22;18004;48.416;10.066;2023-05-07T15:08:35;21.50;16.30
31369;DHT22;18004;48.416;10.066;2023-05-07T15:11:33;21.60;17.50
31369;DHT22;18004;48.416;10.066;2023-05-07T15:14:38;21.40;17.30
31369;DHT22;18004;48.416;10.066;2023-05-07T15:24:23;21.10;25.30
31369;DHT22;18004;48.416;10.066;2023-05-07T15:37:33;20.80;36.20
31369;DHT22;18004;48.416;10.066;2023-05-07T15:40:23;20.70;39.50
31369;DHT22;18004;48.416;10.066;2023-05-07T16:00:12;20.40;51.40
31369;DHT22;18004;48.416;10.066;2023-05-07T16:06:03;20.40;57.00
31369;DHT22;18004;48.416;10.066;2023-05-07T16:08:30;20.40;60.70
31369;DHT22;18004;48.416;10.066;2023-05-07T16:11:08;20.40;71.50
31369;DHT22;18004;48.416;10.066;2023-05-07T16:13:40;20.20;95.00
31369;DHT22;18004;48.416;10.066;2023-05-07T16:16:09;19.10;99.80
31369;DHT22;18004;48.416;10.066;2023-05-07T16:18:45;18.80;99.90
31369;DHT22;18004;48.416;10.066;2023-05-07T16:21:11;18.10;99.90
31369;DHT22;18004;48.416;10.066;2023-05-07T16:23:37;18.00;99.90
31369;DHT22;18004;48.416;10.066;2023-05-07T16:26:03;17.90;99.90
31369;DHT22;18004;48.416;10.066;2023-05-07T16:28:30;17.50;99.90
31369;DHT22;18004;48.416;10.066;2023-05-07T16:30:56;16.90;99.90
31369;DHT22;18004;48.416;10.066;2023-05-07T16:33:21;16.40;99.90
31369;DHT22;18004;48.416;10.066;2023-05-07T16:35:52;16.30;99.90
31369;DHT22;18004;48.416;10.066;2023-05-07T16:38:17;16.30;99.90
31369;DHT22;18004;48.416;10.066;2023-05-07T16:40:43;16.20;99.90
31369;DHT22;18004;48.416;10.066;2023-05-07T16:43:09;16.20;99.90
31369;DHT22;18004;48.416;10.066;2023-05-07T16:45:36;16.00;99.90
31369;DHT22;18004;48.416;10.066;2023-05-07T16:48:01;16.10;99.90
31369;DHT22;18004;48.416;10.066;2023-05-07T16:50:28;16.10;99.90
31369;DHT22;18004;48.416;10.066;2023-05-07T16:52:54;15.90;99.90
31369;DHT22;18004;48.416;10.066;2023-05-07T16:55:20;15.60;99.90
31369;DHT22;18004;48.416;10.066;2023-05-07T16:57:45;15.50;99.90
31369;DHT22;18004;48.416;10.066;2023-05-07T17:00:12;15.50;99.90
31369;DHT22;18004;48.416;10.066;2023-05-07T17:02:37;15.40;99.90
31369;DHT22;18004;48.416;10.066;2023-05-07T17:05:04;15.60;99.90
31369;DHT22;18004;48.416;10.066;2023-05-07T17:07:32;15.60;99.90
31369;DHT22;18004;48.416;10.066;2023-05-07T17:09:58;15.30;99.90
31369;DHT22;18004;48.416;10.066;2023-05-07T17:12:24;15.10;99.90
31369;DHT22;18004;48.416;10.066;2023-05-07T17:14:50;14.90;99.90
31369;DHT22;18004;48.416;10.066;2023-05-07T17:17:16;14.80;99.90
31369;DHT22;18004;48.416;10.066;2023-05-07T17:19:43;14.80;99.90
31369;DHT22;18004;48.416;10.066;2023-05-07T17:22:08;14.80;99.90
31369;DHT22;18004;48.416;10.066;2023-05-07T17:24:34;14.80;99.90
31369;DHT22;18004;48.416;10.066;2023-05-07T17:27:01;14.80;99.90
31369;DHT22;18004;48.416;10.066;2023-05-07T17:29:28;14.80;99.90
31369;DHT22;18004;48.416;10.066;2023-05-07T17:31:53;14.70;99.90
31369;DHT22;18004;48.416;10.066;2023-05-07T17:34:19;14.70;99.90
31369;DHT22;18004;48.416;10.066;2023-05-07T17:36:45;14.60;99.90
31369;DHT22;18004;48.416;10.066;2023-05-07T17:39:11;14.40;99.90
31369;DHT22;18004;48.416;10.066;2023-05-07T17:41:36;14.40;99.90
31369;DHT22;18004;48.416;10.066;2023-05-07T17:44:02;14.30;99.90
31369;DHT22;18004;48.416;10.066;2023-05-07T17:46:28;14.20;99.90
31369;DHT22;18004;48.416;10.066;2023-05-07T17:48:54;14.10;99.90
31369;DHT22;18004;48.416;10.066;2023-05-07T17:51:22;14.00;99.90
31369;DHT22;18004;48.416;10.066;2023-05-07T17:53:47;13.90;99.90
31369;DHT22;18004;48.416;10.066;2023-05-07T17:56:14;13.80;99.90
31369;DHT22;18004;48.416;10.066;2023-05-07T17:58:40;13.80;99.90
31369;DHT22;18004;48.416;10.066;2023-05-07T18:01:06;13.80;99.90
31369;DHT22;18004;48.416;10.066;2023-05-07T18:03:31;13.70;99.90
31369;DHT22;18004;48.416;10.066;2023-05-07T18:05:58;13.70;99.90
31369;DHT22;18004;48.416;10.066;2023-05-07T18:08:25;13.80;99.90
31369;DHT22;18004;48.416;10.066;2023-05-07T18:10:51;13.80;99.90
31369;DHT22;18004;48.416;10.066;2023-05-07T18:13:17;13.90;99.90
31369;DHT22;18004;48.416;10.066;2023-05-07T18:15:45;13.90;99.90
31369;DHT22;18004;48.416;10.066;2023-05-07T18:18:11;13.80;99.90
31369;DHT22;18004;48.416;10.066;2023-05-07T18:20:37;13.80;99.90
31369;DHT22;18004;48.416;10.066;2023-05-07T18:23:03;13.80;99.90
31369;DHT22;18004;48.416;10.066;2023-05-07T18:25:29;13.90;99.90
31369;DHT22;18004;48.416;10.066;2023-05-07T18:27:55;13.90;99.90
31369;DHT22;18004;48.416;10.066;2023-05-07T18:30:21;14.00;99.90
31369;DHT22;18004;48.416;10.066;2023-05-07T18:32:47;14.10;99.90
31369;DHT22;18004;48.416;10.066;2023-05-07T18:35:13;14.20;99.90
31369;DHT22;18004;48.416;10.066;2023-05-07T18:37:41;14.10;99.90
31369;DHT22;18004;48.416;10.066;2023-05-07T18:40:07;13.90;99.90
31369;DHT22;18004;48.416;10.066;2023-05-07T18:42:33;13.80;99.90
31369;DHT22;18004;48.416;10.066;2023-05-07T18:44:59;13.80;99.90
31369;DHT22;18004;48.416;10.066;2023-05-07T18:47:24;13.80;99.90
31369;DHT22;18004;48.416;10.066;2023-05-07T18:49:50;13.90;99.90
31369;DHT22;18004;48.416;10.066;2023-05-07T18:52:16;13.90;99.90
31369;DHT22;18004;48.416;10.066;2023-05-07T18:54:45;14.00;99.90
31369;DHT22;18004;48.416;10.066;2023-05-07T18:57:11;13.90;99.90
31369;DHT22;18004;48.416;10.066;2023-05-07T18:59:37;13.90;99.90
31369;DHT22;18004;48.416;10.066;2023-05-07T19:02:02;13.80;99.90
31369;DHT22;18004;48.416;10.066;2023-05-07T19:04:29;13.80;99.90
31369;DHT22;18004;48.416;10.066;2023-05-07T19:06:55;13.70;99.90
31369;DHT22;18004;48.416;10.066;2023-05-07T19:09:21;13.50;99.90
31369;DHT22;18004;48.416;10.066;2023-05-07T19:11:47;13.50;99.90
31369;DHT22;18004;48.416;10.066;2023-05-07T19:14:13;13.50;99.90
31369;DHT22;18004;48.416;10.066;2023-05-07T19:16:38;13.40;99.90
31369;DHT22;18004;48.416;10.066;2023-05-07T19:19:04;13.40;99.90
31369;DHT22;18004;48.416;10.066;2023-05-07T19:21:31;13.40;99.90
31369;DHT22;18004;48.416;10.066;2023-05-07T19:23:57;13.40;99.90
31369;DHT22;18004;48.416;10.066;2023-05-07T19:26:23;13.40;99.90
31369;DHT22;18004;48.416;10.066;2023-05-07T19:28:49;13.40;99.90
31369;DHT22;18004;48.416;10.066;2023-05-07T19:31:23;13.30;99.90
31369;DHT22;18004;48.416;10.066;2023-05-07T19:33:51;13.30;99.90
31369;DHT22;18004;48.416;10.066;2023-05-07T19:36:17;13.30;99.90
31369;DHT22;18004;48.416;10.066;2023-05-07T19:38:43;13.30;99.90
31369;DHT22;18004;48.416;10.066;2023-05-07T19:41:10;13.30;99.90
31369;DHT22;18004;48.416;10.066;2023-05-07T19:43:39;13.30;99.90
31369;DHT22;18004;48.416;10.066;2023-05-07T19:46:05;13.30;99.90
31369;DHT22;18004;48.416;10.066;2023-05-07T19:48:31;13.30;99.90
31369;DHT22;18004;48.416;10.066;2023-05-07T19:50:57;13.30;99.90
31369;DHT22;18004;48.416;10.066;2023-05-07T19:53:25;13.30;99.90
31369;DHT22;18004;48.416;10.066;2023-05-07T19:56:02;13.40;99.90
31369;DHT22;18004;48.416;10.066;2023-05-07T19:58:28;13.50;99.90
31369;DHT22;18004;48.416;10.066;2023-05-07T20:00:54;13.60;99.90
31369;DHT22;18004;48.416;10.066;2023-05-07T20:03:20;13.70;99.90
31369;DHT22;18004;48.416;10.066;2023-05-07T20:05:46;13.70;99.90
31369;DHT22;18004;48.416;10.066;2023-05-07T20:08:12;13.80;99.90
31369;DHT22;18004;48.416;10.066;2023-05-07T20:10:38;13.80;99.90
31369;DHT22;18004;48.416;10.066;2023-05-07T20:13:05;13.90;99.90
31369;DHT22;18004;48.416;10.066;2023-05-07T20:15:31;13.90;99.90
31369;DHT22;18004;48.416;10.066;2023-05-07T20:17:56;14.00;99.90
31369;DHT22;18004;48.416;10.066;2023-05-07T20:20:22;14.00;99.90
31369;DHT22;18004;48.416;10.066;2023-05-07T20:22:48;14.00;99.90
31369;DHT22;18004;48.416;10.066;2023-05-07T20:25:14;14.00;99.90
31369;DHT22;18004;48.416;10.066;2023-05-07T20:27:40;14.10;99.90
31369;DHT22;18004;48.416;10.066;2023-05-07T20:30:06;14.10;99.90
31369;DHT22;18004;48.416;10.066;2023-05-07T20:32:33;14.10;99.90
31369;DHT22;18004;48.416;10.066;2023-05-07T20:34:58;14.10;99.90
31369;DHT22;18004;48.416;10.066;2023-05-07T20:37:25;14.10;99.90
31369;DHT22;18004;48.416;10.066;2023-05-07T20:39:51;14.10;99.90
31369;DHT22;18004;48.416;10.066;2023-05-07T20:42:17;14.10;99.90
31369;DHT22;18004;48.416;10.066;2023-05-07T20:44:43;14.10;99.90
31369;DHT22;18004;48.416;10.066;2023-05-07T20:47:09;14.00;99.90
31369;DHT22;18004;48.416;10.066;2023-05-07T20:49:35;14.00;99.90
31369;DHT22;18004;48.416;10.066;2023-05-07T20:52:00;14.10;99.90
31369;DHT22;18004;48.416;10.066;2023-05-07T20:54:27;14.10;99.90
31369;DHT22;18004;48.416;10.066;2023-05-07T20:56:53;14.10;99.90
31369;DHT22;18004;48.416;10.066;2023-05-07T20:59:19;14.10;99.90
31369;DHT22;18004;48.416;10.066;2023-05-07T21:01:45;14.10;99.90
31369;DHT22;18004;48.416;10.066;2023-05-07T21:04:11;14.10;99.90
31369;DHT22;18004;48.416;10.066;2023-05-07T21:06:37;14.10;99.90
31369;DHT22;18004;48.416;10.066;2023-05-07T21:09:03;14.10;99.90
31369;DHT22;18004;48.416;10.066;2023-05-07T21:11:28;14.10;99.90
31369;DHT22;18004;48.416;10.066;2023-05-07T21:13:54;14.10;99.90
31369;DHT22;18004;48.416;10.066;2023-05-07T21:16:20;14.20;99.90
31369;DHT22;18004;48.416;10.066;2023-05-07T21:18:47;14.20;99.90
31369;DHT22;18004;48.416;10.066;2023-05-07T21:21:13;14.20;99.90
31369;DHT22;18004;48.416;10.066;2023-05-07T21:23:41;14.20;99.90
31369;DHT22;18004;48.416;10.066;2023-05-07T21:26:07;14.20;99.90
31369;DHT22;18004;48.416;10.066;2023-05-07T21:28:33;14.20;99.90
31369;DHT22;18004;48.416;10.066;2023-05-07T21:30:59;14.10;99.90
31369;DHT22;18004;48.416;10.066;2023-05-07T21:33:25;14.00;99.90
31369;DHT22;18004;48.416;10.066;2023-05-07T21:35:51;14.00;99.90
31369;DHT22;18004;48.416;10.066;2023-05-07T21:38:17;14.00;99.90